Country
Station

 

Weather  for  Talara  -  Peru    Peru

  
25 °C (77 °F)
    
 
 

Current METAR for Talara is :

SPYL 171800Z 21010KT CAVOK 25/17 Q1015 RMK BIRD HAZARD RWY 17/35 PP000

 

This is a report for Talara - Peru.
 
The report was made 49 minutes ago, at 18:00 UTC .
The wind was blowing at a speed of 5.1 meters per second (11.5 miles per hour) from south/southwest (210°).
 
The temperature was 25 °C (77 °F), with a dew-point at 17 °C (63 °F).
The temperature felt like 26 °C (79 °F).
 
The atmospheric pressure was 1015 hPa (29.97 inHg).
The relative humidity was 61.2%.
 
There were no clouds below 1500 meter (5000 feet) and no cumulonimbus clouds.
 
The overall visibility was greater than 10 kilometers (6.2 miles).
 

 
 
 
 

Country :   A   B   C   D   E   F   G   H   I   J   K   L   M   N   O   P   Q   R   S   T   U   V   W   Y   Z

 

Site Info  |  Disclaimer  |  Credits  |  Privacy
Contact us  |  Add to favorites
© 2013-2018 METARs - All rights reserved